Time;durP1;ratioP1;P1;durP2;ratioP2;P2;SDS_P1;SDS_P2;PMS_P1;PMS_P2;Temp;Humidity;BMP_temperature;BMP_pressure;BME280_temperature;BME280_humidity;BME280_pressure;Samples;Min_cycle;Max_cycle;Signal;HPM_P1;HPM_P2
2021/05/09 00:01:13;;;;;;;7.15;3.78;;;;;;;13.06;71.45;100627.47;5090610;28;20109;-57
2021/05/09 00:03:40;;;;;;;10.30;4.28;;;;;;;13.03;71.25;100625.06;5106701;28;20050;-56
2021/05/09 00:06:06;;;;;;;7.85;3.70;;;;;;;12.99;71.43;100628.91;5089324;28;20048;-56
2021/05/09 00:08:32;;;;;;;7.65;3.92;;;;;;;13.00;71.88;100628.78;5088887;28;20126;-56
2021/05/09 00:10:59;;;;;;;7.10;3.10;;;;;;;12.92;71.93;100623.28;5089374;28;20044;-58
2021/05/09 00:13:25;;;;;;;7.05;3.67;;;;;;;12.91;71.86;100616.34;5088024;28;20052;-57
2021/05/09 00:15:51;;;;;;;8.82;3.60;;;;;;;12.84;71.94;100626.53;5089191;28;20048;-57
2021/05/09 00:18:18;;;;;;;10.27;3.53;;;;;;;12.87;71.92;100619.31;5072359;28;20069;-58
2021/05/09 00:20:44;;;;;;;9.82;3.78;;;;;;;12.82;71.87;100617.03;5091295;28;20044;-58
2021/05/09 00:23:11;;;;;;;8.55;3.80;;;;;;;12.76;71.94;100612.22;5099591;28;20041;-56
2021/05/09 00:25:37;;;;;;;5.63;3.40;;;;;;;12.83;71.68;100606.38;5092606;28;20117;-57
2021/05/09 00:28:04;;;;;;;8.98;4.13;;;;;;;12.80;72.12;100600.47;5091098;28;20403;-57
2021/05/09 00:30:30;;;;;;;7.13;3.75;;;;;;;12.75;72.44;100602.63;5088999;28;20040;-55
2021/05/09 00:32:56;;;;;;;7.50;3.63;;;;;;;12.70;72.08;100597.72;5076713;28;20752;-57
2021/05/09 00:35:25;;;;;;;7.18;3.53;;;;;;;12.65;72.24;100589.31;5089545;28;20194;-55
2021/05/09 00:37:52;;;;;;;6.10;3.65;;;;;;;12.57;72.54;100595.22;5091985;28;20494;-58
2021/05/09 00:40:18;;;;;;;7.82;3.28;;;;;;;12.54;72.39;100595.44;5091287;28;20452;-57
2021/05/09 00:42:44;;;;;;;9.60;3.47;;;;;;;12.55;72.64;100596.28;5092053;28;20040;-57
2021/05/09 00:45:11;;;;;;;9.23;3.95;;;;;;;12.48;73.08;100593.28;5090946;28;20044;-57
2021/05/09 00:47:38;;;;;;;9.95;3.55;;;;;;;12.49;72.92;100592.34;5091996;28;20058;-57
2021/05/09 00:50:05;;;;;;;7.35;3.55;;;;;;;12.43;72.93;100588.34;5089604;28;20051;-58
2021/05/09 00:52:38;;;;;;;9.48;3.63;;;;;;;12.39;72.97;100591.34;5089924;28;20410;-55
2021/05/09 00:55:07;;;;;;;8.55;3.53;;;;;;;12.39;73.46;100591.34;5091322;28;20044;-57
2021/05/09 00:57:35;;;;;;;8.05;4.05;;;;;;;12.30;73.35;100585.81;5086418;28;20048;-55
2021/05/09 01:00:09;;;;;;;9.10;3.60;;;;;;;12.31;73.57;100589.28;5090284;28;20540;-55
2021/05/09 01:02:35;;;;;;;9.45;4.00;;;;;;;12.25;73.43;100582.69;5091224;28;20048;-55
2021/05/09 01:05:04;;;;;;;9.25;4.13;;;;;;;12.24;74.20;100574.91;5088660;28;20050;-55
2021/05/09 01:07:31;;;;;;;8.07;4.00;;;;;;;12.18;74.33;100573.56;5098632;28;20048;-55
2021/05/09 01:09:59;;;;;;;9.77;3.72;;;;;;;12.23;73.82;100576.72;5090180;28;20047;-54
2021/05/09 01:12:25;;;;;;;5.80;3.45;;;;;;;12.16;73.79;100570.19;5088375;28;20047;-55
2021/05/09 01:14:53;;;;;;;6.70;3.30;;;;;;;12.17;73.65;100571.91;5089805;28;20101;-56
2021/05/09 01:17:19;;;;;;;8.18;3.88;;;;;;;12.10;74.26;100570.69;5092039;28;20055;-54
2021/05/09 01:19:45;;;;;;;8.23;3.72;;;;;;;12.08;74.34;100559.41;5089147;28;20387;-54
2021/05/09 01:22:12;;;;;;;10.93;4.10;;;;;;;12.03;74.95;100572.13;5091175;28;20094;-56
2021/05/09 01:24:39;;;;;;;6.43;4.00;;;;;;;11.99;74.33;100568.88;5090700;28;20040;-54
2021/05/09 01:27:06;;;;;;;7.57;3.80;;;;;;;12.03;74.26;100569.47;5084007;28;20514;-56
2021/05/09 01:29:33;;;;;;;8.50;3.78;;;;;;;11.89;75.07;100563.41;5121663;27;20403;-55
2021/05/09 01:32:01;;;;;;;8.35;3.85;;;;;;;11.88;75.13;100561.72;5090246;28;20036;-55
2021/05/09 01:34:34;;;;;;;7.88;3.65;;;;;;;11.96;74.46;100561.19;5090312;28;20067;-55
2021/05/09 01:37:01;;;;;;;7.15;4.00;;;;;;;11.91;75.15;100558.84;5090409;28;20088;-54
2021/05/09 01:39:27;;;;;;;8.20;4.07;;;;;;;11.78;75.64;100563.38;5090063;28;20059;-54
2021/05/09 01:41:54;;;;;;;10.45;4.50;;;;;;;11.82;75.00;100552.50;5088778;28;20036;-54
2021/05/09 01:44:20;;;;;;;9.93;4.13;;;;;;;11.75;76.04;100551.28;5091827;28;20045;-54
2021/05/09 01:46:46;;;;;;;6.50;3.60;;;;;;;11.71;75.79;100544.56;5090102;28;20052;-56
2021/05/09 01:49:13;;;;;;;6.88;3.60;;;;;;;11.69;76.35;100543.81;5089494;28;20048;-54
2021/05/09 01:51:39;;;;;;;7.72;4.15;;;;;;;11.64;76.31;100545.97;5088696;28;20040;-55
2021/05/09 01:54:05;;;;;;;8.77;4.20;;;;;;;11.63;76.42;100539.00;5087245;28;20286;-54
2021/05/09 01:56:32;;;;;;;8.70;4.03;;;;;;;11.63;76.13;100541.63;5089929;28;20048;-55
2021/05/09 01:58:58;;;;;;;9.77;3.97;;;;;;;11.59;76.56;100527.00;5090478;28;20044;-55
2021/05/09 02:01:24;;;;;;;8.27;3.75;;;;;;;11.52;76.23;100537.19;5096926;28;20046;-55
2021/05/09 02:03:51;;;;;;;5.93;3.85;;;;;;;11.56;76.81;100527.25;5090924;28;20050;-54
2021/05/09 02:06:18;;;;;;;7.10;4.10;;;;;;;11.46;76.63;100529.72;5089315;28;20414;-55
2021/05/09 02:08:44;;;;;;;8.55;3.90;;;;;;;11.44;76.54;100531.66;5090605;28;20036;-56
2021/05/09 02:11:10;;;;;;;7.55;3.72;;;;;;;11.42;77.21;100529.09;5089541;28;20047;-52
2021/05/09 02:13:36;;;;;;;7.05;4.00;;;;;;;11.36;76.93;100526.09;5086700;28;20044;-55
2021/05/09 02:16:04;;;;;;;8.70;4.03;;;;;;;11.38;77.05;100525.03;5088792;28;20072;-55
2021/05/09 02:18:30;;;;;;;8.15;4.05;;;;;;;11.44;76.85;100529.03;5089734;28;20048;-55
2021/05/09 02:20:56;;;;;;;8.38;4.30;;;;;;;11.32;76.89;100521.06;5090198;28;20059;-54
2021/05/09 02:23:23;;;;;;;9.30;4.22;;;;;;;11.35;76.90;100521.78;5089408;28;20477;-55
2021/05/09 02:25:49;;;;;;;7.20;3.97;;;;;;;11.38;76.61;100516.28;5089118;28;20039;-56
2021/05/09 02:28:15;;;;;;;7.07;4.03;;;;;;;11.32;77.25;100513.16;5089211;28;20058;-54
2021/05/09 02:30:42;;;;;;;10.07;4.40;;;;;;;11.23;77.61;100513.00;5085758;28;20036;-55
2021/05/09 02:33:17;;;;;;;9.30;4.00;;;;;;;11.27;77.07;100504.75;5089923;28;20090;-56
2021/05/09 02:35:43;;;;;;;8.38;4.25;;;;;;;11.22;77.37;100501.63;5088776;28;20803;-56
2021/05/09 02:38:09;;;;;;;8.80;3.63;;;;;;;11.18;77.80;100494.91;5089808;28;20044;-54
2021/05/09 02:40:36;;;;;;;8.25;4.28;;;;;;;11.16;77.96;100494.19;5088151;28;20415;-56
2021/05/09 02:43:02;;;;;;;8.23;3.92;;;;;;;11.14;77.69;100501.34;5095467;28;20040;-56
2021/05/09 02:45:29;;;;;;;8.63;3.88;;;;;;;11.20;77.85;100500.06;5089213;28;20051;-56
2021/05/09 02:47:57;;;;;;;9.60;4.53;;;;;;;11.16;77.99;100502.91;5089689;28;20056;-56
2021/05/09 02:50:23;;;;;;;7.53;4.45;;;;;;;11.13;77.38;100503.13;5089439;28;20048;-54
2021/05/09 02:52:49;;;;;;;7.97;4.13;;;;;;;11.13;77.52;100497.03;5087216;28;20068;-56
2021/05/09 02:55:16;;;;;;;7.68;4.70;;;;;;;11.15;77.59;100497.75;5068656;28;20051;-54
2021/05/09 02:57:42;;;;;;;9.68;4.47;;;;;;;11.11;77.84;100501.56;5087068;28;20783;-54
2021/05/09 03:00:09;;;;;;;8.73;4.22;;;;;;;11.03;78.02;100490.75;5087761;28;20048;-56
2021/05/09 03:02:41;;;;;;;9.07;4.45;;;;;;;11.07;77.98;100502.72;5087651;28;20113;-56
2021/05/09 03:05:08;;;;;;;8.75;4.43;;;;;;;11.04;78.00;100497.69;5089245;28;20067;-55
2021/05/09 03:07:35;;;;;;;9.95;4.70;;;;;;;10.99;77.98;100492.78;5089901;28;20051;-54
2021/05/09 03:10:01;;;;;;;8.98;4.43;;;;;;;10.97;78.53;100499.94;5088681;28;20067;-56
2021/05/09 03:12:28;;;;;;;9.40;4.85;;;;;;;10.91;78.57;100500.41;5086622;28;20043;-57
2021/05/09 03:14:55;;;;;;;9.27;4.45;;;;;;;10.85;78.55;100488.50;5087643;28;20059;-54
2021/05/09 03:17:21;;;;;;;8.52;4.80;;;;;;;10.79;78.78;100500.31;5089481;28;20051;-55
2021/05/09 03:19:48;;;;;;;9.35;4.60;;;;;;;10.77;79.03;100490.84;5088683;28;20440;-56
2021/05/09 03:22:14;;;;;;;10.98;5.07;;;;;;;10.73;78.72;100492.00;5089187;28;20044;-54
2021/05/09 03:24:40;;;;;;;12.85;5.22;;;;;;;10.70;78.55;100497.50;5070908;28;20518;-57
2021/05/09 03:27:11;;;;;;;8.68;4.63;;;;;;;10.71;79.69;100492.13;5084951;28;20048;-52
2021/05/09 03:29:37;;;;;;;9.05;5.07;;;;;;;10.61;79.17;100489.31;5096683;28;20044;-54
2021/05/09 03:32:04;;;;;;;8.35;5.00;;;;;;;10.55;79.81;100479.25;5120224;27;20047;-56
2021/05/09 03:34:31;;;;;;;9.07;4.63;;;;;;;10.58;79.97;100489.53;5087855;28;20048;-56
2021/05/09 03:36:57;;;;;;;8.00;4.65;;;;;;;10.45;79.52;100484.28;5087987;28;20055;-56
2021/05/09 03:39:23;;;;;;;8.98;4.45;;;;;;;10.44;79.19;100492.28;5101074;28;20532;-53
2021/05/09 03:41:50;;;;;;;9.98;4.57;;;;;;;10.33;79.89;100487.75;5087458;28;20521;-56
2021/05/09 03:44:16;;;;;;;7.18;4.43;;;;;;;10.27;80.50;100494.28;5087513;28;20698;-54
2021/05/09 03:46:42;;;;;;;6.88;3.97;;;;;;;10.24;80.60;100499.75;5086768;28;20048;-56
2021/05/09 03:49:09;;;;;;;9.15;4.47;;;;;;;10.22;80.52;100495.53;5087979;28;20032;-55
2021/05/09 03:51:37;;;;;;;7.28;4.43;;;;;;;10.17;79.54;100489.75;5087379;28;20040;-55
2021/05/09 03:54:07;;;;;;;9.98;4.90;;;;;;;10.22;80.54;100498.16;5088131;28;20055;-56
2021/05/09 03:56:33;;;;;;;10.77;4.55;;;;;;;10.17;79.74;100495.88;5086893;28;20410;-54
2021/05/09 03:59:00;;;;;;;9.35;4.45;;;;;;;10.10;79.82;100491.97;5087340;28;20040;-54
2021/05/09 04:01:26;;;;;;;9.32;5.03;;;;;;;10.06;80.17;100491.34;5086733;28;20038;-56
2021/05/09 04:03:52;;;;;;;10.43;4.55;;;;;;;10.01;79.63;100479.44;5088880;28;20048;-56
2021/05/09 04:06:19;;;;;;;8.73;4.25;;;;;;;9.90;79.80;100486.28;5078563;28;20047;-53
2021/05/09 04:08:45;;;;;;;8.40;4.78;;;;;;;9.89;80.04;100483.78;5074189;28;20048;-54
2021/05/09 04:11:13;;;;;;;8.93;4.43;;;;;;;9.80;81.09;100477.34;5083360;28;20368;-53
2021/05/09 04:13:46;;;;;;;7.50;3.70;;;;;;;9.78;80.34;100476.63;5086731;28;20052;-54
2021/05/09 04:16:13;;;;;;;7.75;4.07;;;;;;;9.74;80.78;100467.28;5086989;28;20063;-55
2021/05/09 04:18:39;;;;;;;8.27;3.58;;;;;;;9.74;80.18;100467.28;5087868;28;20063;-55
2021/05/09 04:21:06;;;;;;;7.05;3.97;;;;;;;9.70;80.64;100464.00;5066629;28;20045;-56
2021/05/09 04:23:32;;;;;;;7.75;3.83;;;;;;;9.69;81.11;100461.47;5086840;28;20391;-52
2021/05/09 04:25:59;;;;;;;7.80;3.90;;;;;;;9.66;81.15;100461.69;5085560;28;20051;-56
2021/05/09 04:28:25;;;;;;;7.47;3.97;;;;;;;9.63;80.97;100452.25;5086522;28;20055;-55
2021/05/09 04:30:54;;;;;;;8.65;4.43;;;;;;;9.56;81.01;100453.59;5086609;28;20028;-56
2021/05/09 04:33:25;;;;;;;10.27;4.03;;;;;;;9.55;81.10;100452.75;5086457;28;20067;-54
2021/05/09 04:35:52;;;;;;;7.10;3.80;;;;;;;9.54;81.60;100448.44;5086749;28;20048;-53
2021/05/09 04:38:19;;;;;;;7.20;4.05;;;;;;;9.57;81.07;100450.88;5087669;28;20403;-54
2021/05/09 04:40:45;;;;;;;6.85;3.72;;;;;;;9.55;81.01;100449.28;5086718;28;20452;-54
2021/05/09 04:43:17;;;;;;;7.72;4.40;;;;;;;9.53;81.77;100451.16;5086932;28;20051;-56
2021/05/09 04:45:48;;;;;;;7.72;3.72;;;;;;;9.51;82.28;100453.88;5086676;28;20073;-55
2021/05/09 04:48:14;;;;;;;8.98;4.90;;;;;;;9.57;83.08;100456.13;5088001;28;20071;-55
2021/05/09 04:50:41;;;;;;;8.23;4.25;;;;;;;9.57;82.52;100456.13;5087813;28;20048;-52
2021/05/09 04:53:37;;;;;;;8.40;4.88;;;;;;;9.61;82.82;100454.97;5084924;28;20052;-52
2021/05/09 04:56:08;;;;;;;9.23;5.10;;;;;;;9.64;83.01;100454.75;5069794;28;20056;-53
2021/05/09 04:58:36;;;;;;;10.27;5.80;;;;;;;9.67;82.96;100463.34;5085330;28;20060;-52
2021/05/09 05:01:04;;;;;;;10.02;6.10;;;;;;;9.69;82.82;100456.22;5087475;28;20090;-56
2021/05/09 05:03:31;;;;;;;11.10;5.82;;;;;;;9.71;83.14;100460.44;5087404;28;20399;-52
2021/05/09 05:05:59;;;;;;;11.05;6.15;;;;;;;9.74;83.43;100467.28;5090029;28;20043;-53
2021/05/09 05:08:26;;;;;;;8.88;5.60;;;;;;;9.74;82.57;100465.47;5098440;28;20566;-54
2021/05/09 05:10:53;;;;;;;11.63;6.22;;;;;;;9.76;83.45;100468.00;5090591;28;20032;-53
2021/05/09 05:13:21;;;;;;;9.30;5.43;;;;;;;9.80;82.68;100462.44;5090204;28;20052;-55
2021/05/09 05:15:48;;;;;;;9.68;6.18;;;;;;;9.86;83.01;100452.44;5090501;28;20052;-54
2021/05/09 05:18:14;;;;;;;11.52;5.82;;;;;;;9.92;82.99;100452.88;5091805;28;20399;-54
2021/05/09 05:20:42;;;;;;;9.82;5.43;;;;;;;10.00;82.97;100446.25;5089679;28;20113;-55
2021/05/09 05:23:09;;;;;;;10.93;6.18;;;;;;;10.06;83.41;100446.69;5090146;28;20433;-54
2021/05/09 05:25:35;;;;;;;9.18;5.65;;;;;;;10.13;83.47;100447.94;5089786;28;20040;-55
2021/05/09 05:28:02;;;;;;;8.77;5.28;;;;;;;10.31;84.10;100444.97;5089915;28;20055;-56
2021/05/09 05:30:28;;;;;;;10.95;6.30;;;;;;;10.49;84.17;100446.31;5088770;28;20052;-55
2021/05/09 05:33:06;;;;;;;10.90;5.90;;;;;;;10.70;83.14;100452.78;5084449;28;20707;-54
2021/05/09 05:35:34;;;;;;;10.60;5.95;;;;;;;10.80;83.27;100448.56;5088766;28;20051;-56
2021/05/09 05:38:01;;;;;;;9.10;5.32;;;;;;;10.89;82.73;100447.84;5083495;28;20385;-55
2021/05/09 05:40:28;;;;;;;11.75;6.03;;;;;;;11.09;83.08;100441.16;5090898;28;20056;-55
2021/05/09 05:42:55;;;;;;;10.20;5.72;;;;;;;11.13;82.40;100442.59;5088558;28;20052;-56
2021/05/09 05:45:21;;;;;;;8.90;4.82;;;;;;;11.24;82.49;100446.25;5091143;28;20063;-54
2021/05/09 05:47:49;;;;;;;9.73;5.47;;;;;;;11.31;81.72;100453.53;5091100;28;20090;-52
2021/05/09 05:50:15;;;;;;;9.15;5.07;;;;;;;11.57;80.55;100457.81;5092906;28;20074;-54
2021/05/09 05:52:42;;;;;;;10.27;5.20;;;;;;;11.62;80.68;100451.25;5089916;28;20048;-54
2021/05/09 05:55:09;;;;;;;11.50;4.82;;;;;;;11.74;79.62;100438.09;5090265;28;20410;-56
2021/05/09 05:57:35;;;;;;;8.57;4.55;;;;;;;11.94;79.40;100452.38;5090184;28;20052;-56
2021/05/09 06:00:04;;;;;;;8.73;4.25;;;;;;;12.12;77.40;100450.13;5091930;28;20048;-56
2021/05/09 06:02:30;;;;;;;7.18;4.03;;;;;;;12.09;78.37;100450.38;5074779;28;20047;-55
2021/05/09 06:04:56;;;;;;;7.85;3.90;;;;;;;12.25;77.12;100437.69;5091821;28;20043;-55
2021/05/09 06:07:23;;;;;;;8.18;4.32;;;;;;;12.28;77.38;100436.59;5092330;28;20139;-55
2021/05/09 06:09:49;;;;;;;8.05;4.15;;;;;;;12.32;76.91;100440.69;5088897;28;20497;-55
2021/05/09 06:12:15;;;;;;;9.82;3.97;;;;;;;12.38;77.82;100447.25;5089457;28;20082;-56
2021/05/09 06:14:42;;;;;;;8.00;4.03;;;;;;;12.57;76.56;100444.84;5089337;28;20043;-55
2021/05/09 06:17:08;;;;;;;9.60;4.65;;;;;;;12.63;76.40;100441.72;5089093;28;20051;-56
2021/05/09 06:19:34;;;;;;;9.15;4.63;;;;;;;12.67;77.17;100439.69;5090845;28;20291;-56
2021/05/09 06:22:01;;;;;;;8.50;4.30;;;;;;;12.73;77.02;100438.34;5089615;28;20040;-57
2021/05/09 06:24:27;;;;;;;7.63;4.63;;;;;;;12.84;76.31;100427.75;5089309;28;20058;-57
2021/05/09 06:26:53;;;;;;;10.40;4.43;;;;;;;12.90;75.98;100437.81;5091556;28;20486;-56
2021/05/09 06:29:20;;;;;;;9.55;4.32;;;;;;;13.00;75.90;100437.91;5091862;28;20374;-56
2021/05/09 06:31:46;;;;;;;7.45;4.43;;;;;;;13.10;75.49;100427.41;5091648;28;20047;-56
2021/05/09 06:34:12;;;;;;;6.75;4.07;;;;;;;13.40;73.64;100431.16;5089669;28;20292;-56
2021/05/09 06:36:39;;;;;;;8.40;3.92;;;;;;;13.54;72.74;100425.56;5091993;28;20072;-56
2021/05/09 06:39:06;;;;;;;7.63;3.95;;;;;;;13.80;71.46;100414.59;5090772;28;20052;-56
2021/05/09 06:41:34;;;;;;;9.23;4.32;;;;;;;13.91;70.73;100411.03;5091536;28;20036;-56
2021/05/09 06:44:05;;;;;;;8.18;4.13;;;;;;;14.05;70.28;100413.28;5090771;28;20497;-57
2021/05/09 06:46:31;;;;;;;7.68;4.20;;;;;;;14.26;70.00;100410.59;5073442;28;20044;-56
2021/05/09 06:48:58;;;;;;;8.27;3.65;;;;;;;14.50;67.69;100404.94;5091197;28;20048;-57
2021/05/09 06:51:24;;;;;;;8.00;4.07;;;;;;;14.64;67.77;100409.06;5093437;28;20035;-56
2021/05/09 06:53:51;;;;;;;10.38;4.20;;;;;;;14.90;64.76;100411.13;5092090;28;20061;-56
2021/05/09 06:56:17;;;;;;;7.07;3.75;;;;;;;15.03;65.70;100401.13;5093188;28;20117;-55
2021/05/09 06:58:44;;;;;;;6.00;3.40;;;;;;;15.16;66.30;100394.69;5092131;28;20048;-57
2021/05/09 07:01:12;;;;;;;7.18;3.50;;;;;;;15.44;64.49;100395.63;5093145;28;20124;-57
2021/05/09 07:03:40;;;;;;;6.32;3.35;;;;;;;15.62;63.99;100385.13;5092208;28;20040;-57
2021/05/09 07:06:06;;;;;;;5.32;3.00;;;;;;;15.82;62.14;100387.78;5072103;28;20407;-57
2021/05/09 07:08:32;;;;;;;7.20;4.03;;;;;;;15.97;62.98;100396.09;5091571;28;20487;-58
2021/05/09 07:11:00;;;;;;;6.70;3.42;;;;;;;16.00;61.23;100387.84;5092304;28;20094;-58
2021/05/09 07:13:26;;;;;;;8.88;3.85;;;;;;;16.09;61.02;100384.31;5089096;28;20051;-58
2021/05/09 07:15:53;;;;;;;5.63;3.20;;;;;;;16.25;60.59;100388.13;5089612;28;20036;-56
2021/05/09 07:18:22;;;;;;;5.53;2.97;;;;;;;16.30;61.09;100381.38;5092072;28;20526;-56
2021/05/09 07:21:01;;;;;;;6.95;2.88;;;;;;;16.32;59.97;100387.41;5075310;28;20497;-52
2021/05/09 07:23:28;;;;;;;6.88;3.70;;;;;;;16.39;59.59;100375.19;5091723;28;20054;-55
2021/05/09 07:25:54;;;;;;;5.75;3.20;;;;;;;16.43;59.86;100365.13;5092785;28;20048;-55
2021/05/09 07:28:21;;;;;;;6.50;2.92;;;;;;;16.56;59.60;100362.09;5090921;28;20040;-59
2021/05/09 07:30:48;;;;;;;5.93;3.13;;;;;;;16.66;58.95;100359.34;5090225;28;20055;-56
2021/05/09 07:33:15;;;;;;;5.88;3.10;;;;;;;16.89;58.47;100357.09;5092461;28;20044;-56
2021/05/09 07:35:42;;;;;;;5.18;2.58;;;;;;;17.04;58.80;100342.31;5090752;28;20119;-56
2021/05/09 07:38:10;;;;;;;6.03;2.90;;;;;;;17.32;57.48;100349.31;5090459;28;20126;-57
2021/05/09 07:40:37;;;;;;;5.75;2.55;;;;;;;17.40;57.08;100358.16;5090107;28;20044;-56
2021/05/09 07:43:11;;;;;;;4.65;2.45;;;;;;;17.25;56.87;100346.44;5091379;28;20043;-57
2021/05/09 07:45:38;;;;;;;4.75;2.60;;;;;;;17.32;56.81;100354.63;5055567;28;20075;-57
2021/05/09 07:48:05;;;;;;;7.03;2.88;;;;;;;17.49;56.21;100353.75;5090526;28;20051;-57
2021/05/09 07:50:31;;;;;;;4.70;2.47;;;;;;;17.62;56.51;100345.34;5089358;28;20052;-57
2021/05/09 07:53:01;;;;;;;7.60;3.50;;;;;;;17.68;55.87;100339.41;5090125;28;20052;-57
2021/05/09 07:55:27;;;;;;;6.20;2.88;;;;;;;17.88;56.29;100329.31;5091425;28;20684;-57
2021/05/09 07:57:54;;;;;;;5.82;2.85;;;;;;;18.11;55.88;100335.94;5091193;28;20422;-57
2021/05/09 08:00:21;;;;;;;7.25;2.80;;;;;;;18.36;54.22;100331.50;5092661;28;20050;-57
2021/05/09 08:02:51;;;;;;;6.20;2.80;;;;;;;18.59;54.62;100313.88;5091173;28;20059;-57
2021/05/09 08:05:19;;;;;;;6.20;2.70;;;;;;;18.66;52.65;100300.75;5089058;28;20278;-57
2021/05/09 08:07:53;;;;;;;7.00;2.60;;;;;;;18.80;53.39;100291.28;5089048;28;20491;-57
2021/05/09 08:10:20;;;;;;;5.45;2.70;;;;;;;18.73;52.20;100298.25;5090450;28;20052;-58
2021/05/09 08:12:47;;;;;;;8.18;2.70;;;;;;;18.64;51.75;100289.44;5089343;28;20475;-57
2021/05/09 08:15:14;;;;;;;5.65;2.67;;;;;;;18.88;52.22;100291.31;5092104;28;20054;-56
2021/05/09 08:17:41;;;;;;;6.30;2.65;;;;;;;19.24;50.58;100293.56;5092357;28;20433;-57
2021/05/09 08:20:08;;;;;;;4.93;2.15;;;;;;;19.49;48.46;100292.69;5091553;28;20562;-57
2021/05/09 08:22:34;;;;;;;4.38;2.20;;;;;;;19.57;48.93;100292.66;5090286;28;20035;-57
2021/05/09 08:25:01;;;;;;;4.60;2.08;;;;;;;19.85;49.36;100297.56;5072405;28;20513;-57
2021/05/09 08:27:30;;;;;;;5.97;2.03;;;;;;;20.00;49.47;100295.84;5089386;28;20052;-57
2021/05/09 08:29:56;;;;;;;3.92;1.98;;;;;;;20.09;47.33;100286.75;5089834;28;20079;-57
2021/05/09 08:32:23;;;;;;;4.78;1.90;;;;;;;20.34;47.31;100286.63;5089409;28;20048;-58
2021/05/09 08:34:50;;;;;;;4.13;2.00;;;;;;;20.33;48.68;100265.41;5090115;28;20062;-58
2021/05/09 08:37:16;;;;;;;5.43;2.20;;;;;;;20.57;48.70;100257.25;5090132;28;20058;-57
2021/05/09 08:39:42;;;;;;;5.10;2.30;;;;;;;20.77;47.67;100251.41;5093947;28;20051;-58
2021/05/09 08:42:14;;;;;;;5.10;2.33;;;;;;;20.87;48.64;100246.63;5091873;28;20526;-58
2021/05/09 08:44:41;;;;;;;5.32;2.50;;;;;;;21.01;46.85;100252.16;5093188;28;20048;-57
2021/05/09 08:47:08;;;;;;;4.22;2.00;;;;;;;21.25;46.32;100240.38;5092568;28;20746;-59
2021/05/09 08:49:40;;;;;;;5.32;2.13;;;;;;;21.36;46.26;100231.91;5093152;28;20044;-57
2021/05/09 08:52:10;;;;;;;5.65;2.30;;;;;;;21.54;46.33;100236.91;5095606;28;20507;-58
2021/05/09 08:54:37;;;;;;;8.27;2.13;;;;;;;21.60;46.07;100232.66;5094112;28;20052;-58
2021/05/09 08:57:04;;;;;;;7.20;2.50;;;;;;;21.82;46.04;100230.84;5092591;28;20055;-58
2021/05/09 08:59:31;;;;;;;5.03;2.00;;;;;;;21.91;46.15;100229.72;5089076;28;20040;-58
2021/05/09 09:01:57;;;;;;;4.65;2.08;;;;;;;21.90;46.39;100228.06;5092678;28;20048;-58
2021/05/09 09:04:24;;;;;;;3.88;2.08;;;;;;;21.73;45.66;100234.66;5092307;28;20044;-57
2021/05/09 09:06:53;;;;;;;6.55;2.38;;;;;;;21.85;46.24;100237.66;5091878;28;20047;-57
2021/05/09 09:09:23;;;;;;;3.47;1.98;;;;;;;22.03;45.48;100235.41;5092626;28;20491;-58
2021/05/09 09:11:50;;;;;;;6.40;2.38;;;;;;;22.25;45.27;100233.56;5090635;28;20075;-59
2021/05/09 09:14:16;;;;;;;4.82;2.35;;;;;;;22.14;45.81;100235.91;5091119;28;20052;-58
2021/05/09 09:16:43;;;;;;;5.22;2.22;;;;;;;22.43;45.22;100238.50;5074880;28;20074;-58
2021/05/09 09:19:11;;;;;;;4.90;2.35;;;;;;;22.66;45.40;100218.69;5091584;28;20664;-58
2021/05/09 09:21:38;;;;;;;4.50;2.10;;;;;;;22.93;46.82;100224.22;5092600;28;20040;-58
2021/05/09 09:24:06;;;;;;;5.80;2.50;;;;;;;22.78;45.73;100217.13;5092773;28;20062;-59
2021/05/09 09:26:37;;;;;;;6.03;2.53;;;;;;;22.88;45.67;100224.00;5091158;28;20058;-59
2021/05/09 09:29:33;;;;;;;5.97;2.50;;;;;;;22.80;45.79;100224.97;5077232;28;20068;-57
2021/05/09 09:32:02;;;;;;;5.00;2.42;;;;;;;23.11;45.89;100216.50;5091947;28;20048;-58
2021/05/09 09:34:42;;;;;;;5.55;2.38;;;;;;;23.33;44.43;100219.13;5075340;28;20066;-58
2021/05/09 09:37:10;;;;;;;8.27;2.70;;;;;;;23.62;44.71;100217.19;5091146;28;20040;-58
2021/05/09 09:39:59;;;;;;;7.00;2.63;;;;;;;23.88;43.88;100223.66;5092568;28;20427;-58
2021/05/09 09:42:41;;;;;;;4.75;2.40;;;;;;;24.02;43.24;100211.94;5073749;28;20676;-58
2021/05/09 09:45:25;;;;;;;5.90;2.75;;;;;;;24.14;42.55;100210.28;5092865;28;20056;-57
2021/05/09 09:47:56;;;;;;;7.55;2.72;;;;;;;23.69;41.82;100209.97;5092337;28;20076;-57
2021/05/09 09:50:32;;;;;;;5.57;2.40;;;;;;;23.69;43.02;100214.53;5091572;28;20044;-57
2021/05/09 09:52:59;;;;;;;7.43;2.40;;;;;;;23.64;43.11;100223.16;5094648;28;20538;-57
2021/05/09 09:55:25;;;;;;;5.40;2.53;;;;;;;23.48;44.04;100228.88;5091315;28;20055;-57
2021/05/09 09:58:05;;;;;;;3.95;2.20;;;;;;;23.56;43.83;100217.97;5090871;28;20082;-58
2021/05/09 10:00:31;;;;;;;5.72;2.30;;;;;;;23.61;43.81;100219.06;5091383;28;20044;-57
2021/05/09 10:02:57;;;;;;;3.75;2.10;;;;;;;23.51;44.07;100213.22;5092144;28;20044;-58
2021/05/09 10:05:24;;;;;;;3.55;1.90;;;;;;;23.71;44.06;100199.88;5091277;28;20464;-57
2021/05/09 10:07:50;;;;;;;6.63;2.00;;;;;;;23.99;44.11;100185.50;5090564;28;20040;-58
2021/05/09 10:10:17;;;;;;;3.90;1.98;;;;;;;24.09;43.00;100160.91;5090186;28;20063;-59
2021/05/09 10:12:43;;;;;;;5.20;1.80;;;;;;;24.34;42.93;100149.56;5090255;28;20048;-58
2021/05/09 10:15:10;;;;;;;3.53;1.90;;;;;;;24.23;42.99;100165.28;5089743;28;20048;-58
2021/05/09 10:17:36;;;;;;;3.15;1.70;;;;;;;24.21;42.71;100178.06;5091483;28;20051;-58
2021/05/09 10:20:07;;;;;;;2.97;1.67;;;;;;;24.30;42.46;100174.16;5092025;28;20052;-58
2021/05/09 10:22:35;;;;;;;4.40;1.98;;;;;;;24.50;42.86;100169.81;5090685;28;20117;-57
2021/05/09 10:25:02;;;;;;;4.32;1.98;;;;;;;24.59;41.88;100168.56;5091699;28;20135;-57
2021/05/09 10:27:42;;;;;;;4.38;2.13;;;;;;;24.85;41.07;100161.53;5087004;28;20530;-58
2021/05/09 10:30:10;;;;;;;3.33;2.00;;;;;;;25.13;40.84;100151.28;5092471;28;20123;-59
2021/05/09 10:32:37;;;;;;;4.47;1.80;;;;;;;25.34;40.78;100144.00;5094568;28;20047;-59
2021/05/09 10:35:05;;;;;;;5.68;1.90;;;;;;;25.48;38.84;100148.28;5093073;28;20044;-57
2021/05/09 10:37:35;;;;;;;6.10;1.88;;;;;;;25.57;39.34;100142.63;5096127;28;20498;-58
2021/05/09 10:40:27;;;;;;;5.00;2.03;;;;;;;25.86;40.20;100143.06;5095371;28;20528;-57
2021/05/09 10:43:02;;;;;;;5.53;1.80;;;;;;;26.01;40.23;100143.56;5071521;28;20064;-57
2021/05/09 10:45:29;;;;;;;7.15;1.90;;;;;;;25.85;39.43;100138.72;5090573;28;20411;-58
2021/05/09 10:48:30;;;;;;;3.75;1.70;;;;;;;25.82;38.97;100137.28;5090516;28;20058;-59
2021/05/09 10:51:02;;;;;;;4.13;1.75;;;;;;;25.60;39.93;100145.69;5077430;28;20123;-58
2021/05/09 10:53:35;;;;;;;4.97;1.90;;;;;;;25.43;40.75;100149.97;5094914;28;20512;-57
2021/05/09 10:56:08;;;;;;;5.80;1.98;;;;;;;25.28;40.26;100144.81;5106652;28;20040;-57
2021/05/09 10:58:55;;;;;;;4.13;2.05;;;;;;;25.36;40.72;100141.91;5074559;28;20052;-58
2021/05/09 11:01:26;;;;;;;4.38;1.88;;;;;;;25.26;41.34;100154.97;5078818;28;20048;-60
2021/05/09 11:03:55;;;;;;;3.25;1.75;;;;;;;25.03;41.08;100148.22;5092098;28;20054;-59
2021/05/09 11:06:27;;;;;;;2.60;1.42;;;;;;;24.69;42.31;100152.03;5089279;28;20055;-57
2021/05/09 11:08:57;;;;;;;4.28;1.70;;;;;;;24.36;42.80;100147.50;5097934;28;20397;-60
2021/05/09 11:11:29;;;;;;;3.33;1.80;;;;;;;24.45;41.86;100157.81;5090477;28;20040;-60
2021/05/09 11:16:25;;;;;;;6.70;1.80;;;;;;;24.30;43.08;100139.22;5090857;28;20127;-59
2021/05/09 11:19:05;;;;;;;5.85;2.10;;;;;;;24.03;43.08;100134.91;5091141;28;20055;-58
2021/05/09 11:21:33;;;;;;;2.88;1.83;;;;;;;24.02;44.08;100135.94;5093156;28;20055;-57
2021/05/09 11:24:00;;;;;;;3.88;1.80;;;;;;;24.10;44.37;100112.38;5093165;28;20487;-58
2021/05/09 11:26:44;;;;;;;4.57;1.80;;;;;;;24.18;44.46;100097.91;5089846;28;20464;-59
2021/05/09 11:29:19;;;;;;;3.80;2.13;;;;;;;24.04;45.83;100089.03;5089714;28;20048;-59
2021/05/09 11:31:47;;;;;;;4.78;2.28;;;;;;;;;;5096067;28;20047;-59
2021/05/09 11:34:14;;;;;;;5.00;2.38;;;;;;;23.86;45.03;100056.59;5105630;28;20101;-61